Time;durP1;ratioP1;P1;durP2;ratioP2;P2;SDS_P1;SDS_P2;PMS_P1;PMS_P2;Temp;Humidity;BMP_temperature;BMP_pressure;BME280_temperature;BME280_humidity;BME280_pressure;Samples;Min_cycle;Max_cycle;Signal;HPM_P1;HPM_P2
2021/11/19 00:01:58;;;;;;;28.50;14.48;;;6.00;99.90;;;;;;5093931;28;20039;-68
2021/11/19 00:04:31;;;;;;;24.60;14.50;;;6.00;99.90;;;;;;5112061;28;20043;-68
2021/11/19 00:06:59;;;;;;;25.92;13.23;;;6.00;99.90;;;;;;5104021;28;20039;-68
2021/11/19 00:09:27;;;;;;;27.02;13.82;;;6.00;99.90;;;;;;5105670;28;20044;-68
2021/11/19 00:11:55;;;;;;;27.30;13.68;;;5.90;99.90;;;;;;5107098;28;20496;-72
2021/11/19 00:14:25;;;;;;;27.77;13.57;;;5.90;99.90;;;;;;5111968;28;20047;-69
2021/11/19 00:17:00;;;;;;;27.83;13.70;;;5.90;99.90;;;;;;5083733;28;20047;-68
2021/11/19 00:19:27;;;;;;;27.42;14.45;;;5.80;99.90;;;;;;5102957;28;20050;-68
2021/11/19 00:21:56;;;;;;;28.30;14.55;;;5.80;99.90;;;;;;5108367;28;20071;-68
2021/11/19 00:24:25;;;;;;;29.23;14.65;;;5.80;99.90;;;;;;5093513;28;20078;-68
2021/11/19 00:26:53;;;;;;;25.88;13.63;;;5.80;99.90;;;;;;5111761;28;20406;-69
2021/11/19 00:29:22;;;;;;;25.52;13.68;;;5.80;99.90;;;;;;5078453;28;20036;-68
2021/11/19 00:31:52;;;;;;;26.98;13.82;;;5.80;99.90;;;;;;5106789;28;20047;-69
2021/11/19 00:34:20;;;;;;;34.20;14.20;;;5.70;99.90;;;;;;5093351;28;20117;-69
2021/11/19 00:36:55;;;;;;;25.85;14.27;;;5.60;99.90;;;;;;5088486;28;20047;-66
2021/11/19 00:39:23;;;;;;;24.25;12.38;;;5.60;99.90;;;;;;5083907;28;20048;-67
2021/11/19 00:41:54;;;;;;;26.00;13.82;;;5.50;99.90;;;;;;5100358;28;20078;-68
2021/11/19 00:44:23;;;;;;;27.23;13.73;;;5.60;99.90;;;;;;5085559;28;20070;-67
2021/11/19 00:46:52;;;;;;;28.02;13.27;;;5.60;99.90;;;;;;5090552;28;20047;-67
2021/11/19 00:49:22;;;;;;;27.45;13.60;;;5.70;99.90;;;;;;5105891;28;20052;-69
2021/11/19 00:51:53;;;;;;;25.88;12.50;;;5.80;99.90;;;;;;5111259;28;20040;-69
2021/11/19 00:54:22;;;;;;;26.38;12.68;;;5.90;99.90;;;;;;5106882;28;20051;-69
2021/11/19 00:56:56;;;;;;;25.60;13.52;;;6.00;99.90;;;;;;5076167;28;20146;-69
2021/11/19 00:59:27;;;;;;;23.77;12.45;;;6.00;99.90;;;;;;5078562;28;20082;-67
2021/11/19 01:02:01;;;;;;;28.10;14.13;;;6.00;99.90;;;;;;5092812;28;20057;-67
2021/11/19 01:04:29;;;;;;;30.35;12.73;;;6.10;99.90;;;;;;5091063;28;20035;-67
2021/11/19 01:06:58;;;;;;;25.95;13.52;;;6.10;99.90;;;;;;5072467;28;20038;-67
2021/11/19 01:09:28;;;;;;;28.45;12.93;;;6.10;99.90;;;;;;5086928;28;20036;-68
2021/11/19 01:11:58;;;;;;;27.48;12.85;;;6.20;99.90;;;;;;5055440;28;20041;-68
2021/11/19 01:14:52;;;;;;;27.30;12.38;;;6.20;99.90;;;;;;5086064;28;20402;-67
2021/11/19 01:17:27;;;;;;;22.23;12.65;;;6.20;99.90;;;;;;5099609;28;20047;-67
2021/11/19 01:20:10;;;;;;;27.17;13.05;;;6.30;99.90;;;;;;5070944;28;20048;-67
2021/11/19 01:22:41;;;;;;;24.17;12.57;;;6.20;99.90;;;;;;5092527;28;20510;-68
2021/11/19 01:25:11;;;;;;;31.65;13.25;;;6.30;99.90;;;;;;5092394;28;20451;-69
2021/11/19 01:27:40;;;;;;;27.58;12.80;;;6.30;99.90;;;;;;5055878;28;20089;-68
2021/11/19 01:30:10;;;;;;;28.35;12.15;;;6.30;99.90;;;;;;5070321;28;20075;-67
2021/11/19 01:32:38;;;;;;;27.83;13.35;;;6.30;99.90;;;;;;5072413;28;20036;-69
2021/11/19 01:35:20;;;;;;;24.50;12.50;;;6.40;99.90;;;;;;5106300;28;20048;-67
2021/11/19 01:38:11;;;;;;;24.85;12.05;;;6.40;99.90;;;;;;5073000;28;20040;-68
2021/11/19 01:40:57;;;;;;;27.65;12.98;;;6.40;99.90;;;;;;5090922;28;20036;-68
2021/11/19 01:43:30;;;;;;;23.17;12.30;;;6.40;99.90;;;;;;5085186;28;20097;-67
2021/11/19 01:46:03;;;;;;;25.70;12.65;;;6.40;99.90;;;;;;5087671;28;20069;-68
2021/11/19 01:48:39;;;;;;;24.30;12.45;;;6.40;99.90;;;;;;5090406;28;20081;-68
2021/11/19 01:51:15;;;;;;;27.40;12.05;;;6.40;99.90;;;;;;5072766;28;20036;-68
2021/11/19 01:54:11;;;;;;;24.48;12.10;;;6.40;99.90;;;;;;5076776;28;20104;-68
2021/11/19 01:56:45;;;;;;;22.88;11.45;;;6.40;99.90;;;;;;5087038;28;20105;-68
2021/11/19 01:59:30;;;;;;;28.58;13.07;;;6.40;99.90;;;;;;5089237;28;20071;-69
2021/11/19 02:02:02;;;;;;;22.92;11.95;;;6.40;99.90;;;;;;5090193;28;20051;-68
2021/11/19 02:04:40;;;;;;;25.30;12.38;;;6.40;99.90;;;;;;5074038;28;20055;-68
2021/11/19 02:07:13;;;;;;;29.30;12.95;;;6.40;99.90;;;;;;5089607;28;20551;-68
2021/11/19 02:10:10;;;;;;;27.05;12.38;;;6.40;99.90;;;;;;5093189;28;20168;-68
2021/11/19 02:12:55;;;;;;;25.33;12.38;;;6.50;99.90;;;;;;5075486;28;20097;-68
2021/11/19 02:15:30;;;;;;;28.17;12.13;;;6.50;99.90;;;;;;5107147;28;20138;-68
2021/11/19 02:18:05;;;;;;;21.15;11.73;;;6.40;99.90;;;;;;5058922;28;20044;-68
2021/11/19 02:20:40;;;;;;;24.65;11.38;;;6.50;99.90;;;;;;5085533;28;20040;-68
2021/11/19 02:23:19;;;;;;;21.95;11.15;;;6.50;99.90;;;;;;5093859;28;20039;-68
2021/11/19 02:25:52;;;;;;;23.55;12.43;;;6.50;99.90;;;;;;5057746;28;20048;-68
2021/11/19 02:28:25;;;;;;;30.23;13.20;;;6.50;99.90;;;;;;5078113;28;20072;-68
2021/11/19 02:31:20;;;;;;;24.23;12.75;;;6.50;99.90;;;;;;5078860;28;20046;-68
2021/11/19 02:33:50;;;;;;;26.00;12.48;;;6.50;99.90;;;;;;4991337;28;20053;-68
2021/11/19 02:36:33;;;;;;;30.02;12.20;;;6.50;99.90;;;;;;4992600;28;20184;-68
2021/11/19 02:39:10;;;;;;;23.15;12.10;;;6.40;99.90;;;;;;4987905;28;20050;-68
2021/11/19 02:41:45;;;;;;;30.83;13.30;;;6.40;99.90;;;;;;4970497;28;20064;-68
2021/11/19 02:44:19;;;;;;;24.83;12.70;;;6.50;99.90;;;;;;4987627;28;20046;-68
2021/11/19 02:46:55;;;;;;;27.92;12.40;;;6.50;99.90;;;;;;4972572;28;20208;-68
2021/11/19 02:49:26;;;;;;;25.02;12.88;;;6.50;99.90;;;;;;4994097;28;20054;-68
2021/11/19 02:51:53;;;;;;;30.10;13.27;;;6.50;99.90;;;;;;4976019;28;20184;-68
2021/11/19 02:54:29;;;;;;;26.92;12.43;;;6.50;99.90;;;;;;4993921;28;20046;-68
2021/11/19 02:56:58;;;;;;;25.15;12.10;;;6.50;99.90;;;;;;4991772;28;20524;-68
2021/11/19 02:59:26;;;;;;;21.23;11.70;;;6.50;99.90;;;;;;5009435;28;20050;-68
2021/11/19 03:02:01;;;;;;;22.98;11.82;;;6.40;99.90;;;;;;4991456;28;20046;-68
2021/11/19 03:04:34;;;;;;;28.33;12.95;;;6.40;99.90;;;;;;5009756;28;20057;-68
2021/11/19 03:07:02;;;;;;;29.73;12.63;;;6.40;99.90;;;;;;4994002;28;20075;-68
2021/11/19 03:09:42;;;;;;;24.27;12.05;;;6.50;99.90;;;;;;4977250;28;20386;-68
2021/11/19 03:12:12;;;;;;;27.63;12.32;;;6.50;99.90;;;;;;5086094;28;20100;-67
2021/11/19 03:14:42;;;;;;;28.13;11.57;;;6.40;99.90;;;;;;5072757;28;20134;-68
2021/11/19 03:17:11;;;;;;;21.08;11.18;;;6.50;99.90;;;;;;5084165;28;20036;-68
2021/11/19 03:19:40;;;;;;;24.85;10.75;;;6.50;99.90;;;;;;5073779;28;20032;-68
2021/11/19 03:22:10;;;;;;;26.73;12.63;;;6.50;99.90;;;;;;5084834;28;20526;-67
2021/11/19 03:24:39;;;;;;;23.48;11.38;;;6.50;99.90;;;;;;5068688;28;20070;-67
2021/11/19 03:27:11;;;;;;;28.77;11.35;;;6.50;99.90;;;;;;5091044;28;20546;-67
2021/11/19 03:29:47;;;;;;;31.83;12.70;;;6.50;99.90;;;;;;5072637;28;20394;-67
2021/11/19 03:32:19;;;;;;;23.52;12.10;;;6.50;99.90;;;;;;5077319;28;20062;-67
2021/11/19 03:34:47;;;;;;;32.33;11.68;;;6.50;99.90;;;;;;5079857;28;20460;-68
2021/11/19 03:37:15;;;;;;;25.38;13.30;;;6.40;99.90;;;;;;5072970;28;20048;-68
2021/11/19 03:39:43;;;;;;;26.73;12.32;;;6.40;99.90;;;;;;5076028;28;20548;-68
2021/11/19 03:42:13;;;;;;;27.13;11.75;;;6.30;99.90;;;;;;5089038;28;20401;-68
2021/11/19 03:44:51;;;;;;;28.85;12.85;;;6.30;99.90;;;;;;5083118;28;20409;-68
2021/11/19 03:47:41;;;;;;;26.25;12.35;;;6.40;99.90;;;;;;5083660;28;20032;-68
2021/11/19 03:50:14;;;;;;;30.95;12.75;;;6.30;99.90;;;;;;5056786;28;20047;-67
2021/11/19 03:52:43;;;;;;;26.13;12.00;;;6.30;99.90;;;;;;5076426;28;20406;-68
2021/11/19 03:55:16;;;;;;;25.80;12.50;;;6.40;99.90;;;;;;5093537;28;20055;-68
2021/11/19 03:57:44;;;;;;;27.10;14.15;;;6.40;99.90;;;;;;5088068;28;20423;-67
2021/11/19 04:00:17;;;;;;;28.35;12.45;;;6.30;99.90;;;;;;5084208;28;20073;-68
2021/11/19 04:02:48;;;;;;;33.95;13.50;;;6.40;99.90;;;;;;5057671;28;20153;-67
2021/11/19 04:05:17;;;;;;;28.48;12.57;;;6.40;99.90;;;;;;5092322;28;20043;-68
2021/11/19 04:07:44;;;;;;;24.75;13.05;;;6.30;99.90;;;;;;5093930;28;20757;-67
2021/11/19 04:10:14;;;;;;;27.90;11.73;;;6.30;99.90;;;;;;5086123;28;20123;-67
2021/11/19 04:12:43;;;;;;;30.75;13.18;;;6.30;99.90;;;;;;5073715;28;20050;-67
2021/11/19 04:15:15;;;;;;;28.83;12.75;;;6.30;99.90;;;;;;5106526;28;20518;-68
2021/11/19 04:17:43;;;;;;;25.63;12.32;;;6.30;99.90;;;;;;5089049;28;20044;-67
2021/11/19 04:20:12;;;;;;;23.45;13.00;;;6.40;99.90;;;;;;5085588;28;20031;-67
2021/11/19 04:22:40;;;;;;;24.33;12.57;;;6.40;99.90;;;;;;5075624;28;20879;-68
2021/11/19 04:25:10;;;;;;;26.85;13.48;;;6.30;99.90;;;;;;5103198;28;20684;-68
2021/11/19 04:27:39;;;;;;;25.70;12.18;;;6.30;99.90;;;;;;5078742;28;20039;-67
2021/11/19 04:30:29;;;;;;;22.45;12.77;;;6.30;99.90;;;;;;5076936;28;20122;-68
2021/11/19 04:32:57;;;;;;;26.98;12.60;;;6.30;99.90;;;;;;5091892;28;20063;-68
2021/11/19 04:35:25;;;;;;;26.13;13.38;;;6.30;99.90;;;;;;5080186;28;20048;-68
2021/11/19 04:37:54;;;;;;;27.63;13.90;;;6.40;99.90;;;;;;5071830;28;20040;-68
2021/11/19 04:40:23;;;;;;;39.67;14.75;;;6.40;99.90;;;;;;5080158;28;20044;-68
2021/11/19 04:42:51;;;;;;;32.78;14.95;;;6.40;99.90;;;;;;5061053;28;20573;-68
2021/11/19 04:45:24;;;;;;;28.65;14.07;;;6.50;99.90;;;;;;5072796;28;20063;-68
2021/11/19 04:47:51;;;;;;;28.00;13.30;;;6.40;99.90;;;;;;5043709;28;20574;-68
2021/11/19 04:50:22;;;;;;;32.78;15.02;;;6.40;99.90;;;;;;5072131;28;20540;-68
2021/11/19 04:52:51;;;;;;;31.95;14.48;;;6.40;99.90;;;;;;5071606;28;20040;-68
2021/11/19 04:55:18;;;;;;;37.28;15.38;;;6.40;99.90;;;;;;5047938;28;20047;-68
2021/11/19 04:57:46;;;;;;;33.88;16.80;;;6.40;99.90;;;;;;5108969;28;20039;-68
2021/11/19 05:00:20;;;;;;;30.48;15.77;;;6.40;99.90;;;;;;5071982;28;20048;-68
2021/11/19 05:03:08;;;;;;;27.27;15.38;;;6.40;99.90;;;;;;5100160;28;20067;-68
2021/11/19 05:05:38;;;;;;;27.98;16.08;;;6.50;99.90;;;;;;5054474;28;20471;-68
2021/11/19 05:08:07;;;;;;;26.23;15.10;;;6.40;99.90;;;;;;5075006;28;20032;-68
2021/11/19 05:10:36;;;;;;;36.45;16.83;;;6.40;99.90;;;;;;5082799;28;20112;-68
2021/11/19 05:13:05;;;;;;;36.15;16.63;;;6.40;99.90;;;;;;5058027;28;20477;-68
2021/11/19 05:15:40;;;;;;;32.63;16.90;;;6.50;99.90;;;;;;5078011;28;20067;-68
2021/11/19 05:18:07;;;;;;;31.75;16.00;;;6.50;99.90;;;;;;5070985;28;20044;-68
2021/11/19 05:20:36;;;;;;;35.53;16.80;;;6.50;99.90;;;;;;5072694;28;20043;-68
2021/11/19 05:23:05;;;;;;;30.60;15.45;;;6.40;99.90;;;;;;5055738;28;20052;-68
2021/11/19 05:25:34;;;;;;;31.67;16.20;;;6.40;99.90;;;;;;5071321;28;20090;-68
2021/11/19 05:28:04;;;;;;;27.15;15.43;;;6.50;99.90;;;;;;5057744;28;20454;-68
2021/11/19 05:30:34;;;;;;;35.35;16.77;;;6.50;99.90;;;;;;5082795;28;20048;-68
2021/11/19 05:33:05;;;;;;;31.85;17.02;;;6.50;99.90;;;;;;5077176;28;20545;-68
2021/11/19 05:35:34;;;;;;;37.78;17.45;;;6.40;99.90;;;;;;5088301;28;20039;-68
2021/11/19 05:38:02;;;;;;;32.25;17.35;;;6.40;99.90;;;;;;5071409;28;20040;-68
2021/11/19 05:40:31;;;;;;;37.30;17.20;;;6.40;99.90;;;;;;5086527;28;20501;-67
2021/11/19 05:42:59;;;;;;;32.53;15.90;;;6.40;99.90;;;;;;5057438;28;20040;-68
2021/11/19 05:45:31;;;;;;;34.10;16.83;;;6.30;99.90;;;;;;5066826;28;20075;-68
2021/11/19 05:48:04;;;;;;;34.00;18.42;;;6.30;99.90;;;;;;5093740;28;20054;-68
2021/11/19 05:50:39;;;;;;;33.35;17.52;;;6.30;99.90;;;;;;5081234;28;20042;-68
2021/11/19 05:53:08;;;;;;;35.95;18.67;;;6.20;99.90;;;;;;5079660;28;20032;-68
2021/11/19 05:55:40;;;;;;;35.67;18.40;;;6.20;99.90;;;;;;5103471;28;20032;-68
2021/11/19 05:58:08;;;;;;;37.30;19.13;;;6.20;99.90;;;;;;5094122;28;20427;-68
2021/11/19 06:00:45;;;;;;;36.65;18.48;;;6.20;99.90;;;;;;5107797;28;20046;-68
2021/11/19 06:03:21;;;;;;;33.83;17.73;;;6.30;99.90;;;;;;5084272;28;20044;-68
2021/11/19 06:06:05;;;;;;;39.17;18.67;;;6.20;99.90;;;;;;5100247;28;20432;-68
2021/11/19 06:08:51;;;;;;;43.85;18.70;;;6.30;99.90;;;;;;5094442;28;20044;-68
2021/11/19 06:11:29;;;;;;;38.38;19.50;;;6.30;99.90;;;;;;5091611;28;20067;-68
2021/11/19 06:13:59;;;;;;;42.13;19.95;;;6.20;99.90;;;;;;5110768;28;20506;-68
2021/11/19 06:16:34;;;;;;;37.60;20.08;;;6.20;99.90;;;;;;5095964;28;20055;-68
2021/11/19 06:19:12;;;;;;;40.67;19.02;;;6.10;99.90;;;;;;5087509;28;20472;-68
2021/11/19 06:21:44;;;;;;;43.75;20.27;;;6.10;99.90;;;;;;5099026;28;20453;-68
2021/11/19 06:24:19;;;;;;;41.25;21.58;;;6.10;99.90;;;;;;5091510;28;20039;-68
2021/11/19 06:26:52;;;;;;;46.05;21.33;;;6.00;99.90;;;;;;5079366;28;20057;-68
2021/11/19 06:29:20;;;;;;;51.17;21.38;;;6.00;99.90;;;;;;5088957;28;20127;-68
2021/11/19 06:31:51;;;;;;;43.72;22.20;;;6.00;99.90;;;;;;5094598;28;20410;-68
2021/11/19 06:34:19;;;;;;;45.90;21.40;;;6.00;99.90;;;;;;5097632;28;20042;-68
2021/11/19 06:36:46;;;;;;;48.28;22.05;;;6.00;99.90;;;;;;5090191;28;20035;-68
2021/11/19 06:39:42;;;;;;;45.97;22.95;;;6.00;99.90;;;;;;5079322;28;20553;-67
2021/11/19 06:42:21;;;;;;;47.78;21.55;;;6.00;99.90;;;;;;5090752;28;20039;-68
2021/11/19 06:45:17;;;;;;;45.20;21.60;;;6.10;99.90;;;;;;5106548;28;20040;-68
2021/11/19 06:47:55;;;;;;;42.55;20.77;;;6.00;99.90;;;;;;5082258;28;20036;-68
2021/11/19 06:50:44;;;;;;;51.17;20.63;;;6.10;99.90;;;;;;5084309;28;20071;-68
2021/11/19 06:53:35;;;;;;;47.20;22.02;;;6.10;99.90;;;;;;5088516;28;20514;-68
2021/11/19 06:56:29;;;;;;;49.45;21.70;;;6.10;99.90;;;;;;5079609;28;20110;-68
2021/11/19 06:59:07;;;;;;;47.08;21.80;;;6.10;99.90;;;;;;5088828;28;20065;-68
2021/11/19 07:01:34;;;;;;;51.42;22.23;;;6.10;99.90;;;;;;5086416;28;20412;-68
2021/11/19 07:04:02;;;;;;;41.78;21.70;;;6.10;99.90;;;;;;5092634;28;20466;-68
2021/11/19 07:06:30;;;;;;;49.97;22.83;;;6.10;99.90;;;;;;5082914;28;20063;-68
2021/11/19 07:08:59;;;;;;;53.47;23.77;;;6.10;99.90;;;;;;5090016;28;20096;-68
2021/11/19 07:11:28;;;;;;;45.08;22.80;;;6.10;99.90;;;;;;5080272;28;20118;-68
2021/11/19 07:13:57;;;;;;;43.53;21.00;;;6.20;99.90;;;;;;5074354;28;20101;-68
2021/11/19 07:16:27;;;;;;;50.50;23.25;;;6.20;99.90;;;;;;5107872;28;20575;-69
2021/11/19 07:18:56;;;;;;;53.50;22.80;;;6.20;99.90;;;;;;5091920;28;20441;-68
2021/11/19 07:21:26;;;;;;;49.47;21.30;;;6.20;99.90;;;;;;5067806;28;20293;-67
2021/11/19 07:23:54;;;;;;;47.90;20.80;;;6.20;99.90;;;;;;5061586;28;20055;-69
2021/11/19 07:26:25;;;;;;;44.90;21.13;;;6.20;99.90;;;;;;5094930;28;20049;-69
2021/11/19 07:28:53;;;;;;;44.50;21.35;;;6.30;99.90;;;;;;5088433;28;20044;-69
2021/11/19 07:31:39;;;;;;;38.33;19.30;;;6.30;99.90;;;;;;5108434;28;20489;-68
2021/11/19 07:34:10;;;;;;;40.15;19.98;;;6.30;99.90;;;;;;5109641;28;20066;-69
2021/11/19 07:36:55;;;;;;;35.95;18.92;;;6.30;99.90;;;;;;5087668;28;20126;-68
2021/11/19 07:39:35;;;;;;;39.38;18.67;;;6.40;99.90;;;;;;5091380;28;20040;-68
2021/11/19 07:42:32;;;;;;;43.88;19.80;;;6.50;99.90;;;;;;5030369;28;20061;-68
2021/11/19 07:45:29;;;;;;;40.83;19.13;;;6.60;99.90;;;;;;5004866;28;20401;-68
2021/11/19 07:48:13;;;;;;;36.45;19.10;;;6.60;99.90;;;;;;4995595;28;20049;-67
2021/11/19 07:50:43;;;;;;;41.85;18.42;;;6.70;99.90;;;;;;4991150;28;20525;-68
2021/11/19 07:53:11;;;;;;;37.97;19.20;;;6.70;99.90;;;;;;5012003;28;20050;-67
2021/11/19 07:55:41;;;;;;;38.65;18.05;;;6.80;99.90;;;;;;5011209;28;20555;-67
2021/11/19 07:58:08;;;;;;;40.60;18.15;;;6.80;99.90;;;;;;5029324;28;20050;-67
2021/11/19 08:00:38;;;;;;;35.90;17.23;;;6.90;99.90;;;;;;5001617;28;20398;-67
2021/11/19 08:03:09;;;;;;;30.60;16.65;;;6.90;99.90;;;;;;4979529;28;20436;-67
2021/11/19 08:05:37;;;;;;;39.75;17.38;;;6.90;99.90;;;;;;5008089;28;20431;-67
2021/11/19 08:08:23;;;;;;;36.45;16.70;;;6.90;99.90;;;;;;4994671;28;20054;-68
2021/11/19 08:11:09;;;;;;;33.28;16.52;;;7.00;99.90;;;;;;5005820;28;20099;-68
2021/11/19 08:13:36;;;;;;;34.00;16.50;;;7.10;99.90;;;;;;5008591;28;20125;-67
2021/11/19 08:16:05;;;;;;;33.33;15.48;;;7.10;99.90;;;;;;4975927;28;20054;-68
2021/11/19 08:18:55;;;;;;;33.55;16.15;;;7.10;99.90;;;;;;5041201;28;20054;-67
2021/11/19 08:21:23;;;;;;;32.25;17.17;;;7.10;99.90;;;;;;5074462;28;20114;-69
2021/11/19 08:23:56;;;;;;;38.05;17.50;;;7.10;99.90;;;;;;5101071;28;20040;-68
2021/11/19 08:26:38;;;;;;;32.47;17.08;;;7.20;99.90;;;;;;5098515;28;20052;-68
2021/11/19 08:29:09;;;;;;;33.65;16.45;;;7.20;99.90;;;;;;5083353;28;20050;-69
2021/11/19 08:31:37;;;;;;;31.55;16.58;;;7.20;99.90;;;;;;5072227;28;20036;-68
2021/11/19 08:34:05;;;;;;;32.90;16.20;;;7.20;99.90;;;;;;5103785;28;20035;-67
2021/11/19 08:36:32;;;;;;;34.15;17.70;;;7.10;99.90;;;;;;5081567;28;20036;-68
2021/11/19 08:39:01;;;;;;;35.47;16.52;;;7.00;99.90;;;;;;5103011;28;20086;-68
2021/11/19 08:41:28;;;;;;;31.60;16.27;;;7.00;99.90;;;;;;5095965;28;20044;-67
2021/11/19 08:43:58;;;;;;;35.78;18.38;;;7.10;99.90;;;;;;5070136;28;20047;-67
2021/11/19 08:46:32;;;;;;;33.03;16.13;;;7.10;99.90;;;;;;5105899;28;20035;-67
2021/11/19 08:49:02;;;;;;;33.70;18.20;;;7.20;99.90;;;;;;5107397;28;20088;-69
2021/11/19 08:51:31;;;;;;;34.90;16.90;;;7.30;99.90;;;;;;5108729;28;20043;-68
2021/11/19 08:54:03;;;;;;;32.20;16.55;;;7.40;99.90;;;;;;5075003;28;20123;-68
2021/11/19 08:56:40;;;;;;;30.00;16.92;;;7.50;99.90;;;;;;5086615;28;20070;-69
2021/11/19 08:59:11;;;;;;;30.08;16.30;;;7.50;99.90;;;;;;5102603;28;20040;-68
2021/11/19 09:01:40;;;;;;;33.00;15.88;;;7.50;99.90;;;;;;5078622;28;20102;-69
2021/11/19 09:04:09;;;;;;;33.03;16.45;;;7.50;99.90;;;;;;5092762;28;20086;-68
2021/11/19 09:06:36;;;;;;;35.00;16.75;;;7.60;99.90;;;;;;5080498;28;20040;-68
2021/11/19 09:09:06;;;;;;;33.72;17.15;;;7.60;99.90;;;;;;5109254;28;20039;-68
2021/11/19 09:11:34;;;;;;;30.88;16.25;;;7.60;99.90;;;;;;5107908;28;20433;-67
2021/11/19 09:14:03;;;;;;;34.90;17.00;;;7.50;99.90;;;;;;5098815;28;20036;-68
2021/11/19 09:16:35;;;;;;;30.73;15.65;;;7.40;99.90;;;;;;5084148;28;20036;-68
2021/11/19 09:19:16;;;;;;;33.90;16.58;;;7.40;99.90;;;;;;5074539;28;20071;-69
2021/11/19 09:21:49;;;;;;;27.75;13.35;;;7.30;99.90;;;;;;5087334;28;20051;-68
2021/11/19 09:24:21;;;;;;;25.52;12.88;;;7.40;99.90;;;;;;5101640;28;20040;-68
2021/11/19 09:26:55;;;;;;;26.15;15.02;;;7.40;99.90;;;;;;5095577;28;20139;-68
2021/11/19 09:29:47;;;;;;;27.05;14.43;;;7.40;99.90;;;;;;5071469;28;20054;-68
2021/11/19 09:32:16;;;;;;;29.27;14.45;;;7.40;99.90;;;;;;5101036;28;20047;-68
2021/11/19 09:34:47;;;;;;;30.88;15.23;;;7.40;99.90;;;;;;5091718;28;20043;-67
2021/11/19 09:37:16;;;;;;;33.97;14.82;;;7.40;99.90;;;;;;5078648;28;20044;-66
2021/11/19 09:39:46;;;;;;;28.80;13.00;;;7.40;99.90;;;;;;5089519;28;20040;-67
2021/11/19 09:42:44;;;;;;;22.17;13.30;;;7.50;99.90;;;;;;5076311;28;20131;-67
2021/11/19 09:45:34;;;;;;;22.73;11.77;;;7.60;99.90;;;;;;5101484;28;20490;-68
2021/11/19 09:48:26;;;;;;;23.23;12.13;;;7.60;99.90;;;;;;5107532;28;20414;-68
2021/11/19 09:51:19;;;;;;;24.15;13.05;;;7.70;99.90;;;;;;5089708;28;20088;-67
2021/11/19 09:54:26;;;;;;;23.20;12.05;;;7.70;99.90;;;;;;4987116;28;20070;-67
2021/11/19 09:57:27;;;;;;;22.80;10.95;;;7.90;99.90;;;;;;4996925;28;20481;-68
2021/11/19 10:00:31;;;;;;;21.30;10.23;;;8.00;99.90;;;;;;5006506;28;20050;-67
2021/11/19 10:03:22;;;;;;;18.67;9.48;;;8.00;99.90;;;;;;4987772;28;20054;-68
2021/11/19 10:06:15;;;;;;;15.50;8.10;;;8.10;99.90;;;;;;5006421;28;20088;-68
2021/11/19 10:08:57;;;;;;;;;;;8.20;99.90;;;;;;4997069;28;20148;-68
2021/11/19 10:11:36;;;;;;;12.63;6.43;;;8.30;99.90;;;;;;4987548;28;19922;-68
2021/11/19 10:14:27;;;;;;;13.48;7.47;;;8.40;99.90;;;;;;4989589;28;20053;-68
2021/11/19 10:17:32;;;;;;;14.80;6.72;;;8.70;99.90;;;;;;4986861;28;20077;-68
2021/11/19 10:20:12;;;;;;;13.05;6.55;;;8.80;99.90;;;;;;5001053;28;20049;-69
2021/11/19 10:22:46;;;;;;;10.48;5.93;;;9.00;99.90;;;;;;5005242;28;20077;-68
2021/11/19 10:25:32;;;;;;;9.10;5.20;;;9.30;99.90;;;;;;4988846;28;20088;-68
2021/11/19 10:28:04;;;;;;;12.25;5.25;;;9.40;99.90;;;;;;5007581;28;20058;-68
2021/11/19 10:30:48;;;;;;;10.70;4.97;;;9.50;99.90;;;;;;5044129;28;20044;-69
2021/11/19 10:33:54;;;;;;;10.82;5.38;;;9.60;99.90;;;;;;5108804;28;20042;-69
2021/11/19 10:36:31;;;;;;;9.18;5.03;;;9.90;99.90;;;;;;5023408;28;20465;-70
2021/11/19 10:39:13;;;;;;;10.45;5.38;;;10.00;99.90;;;;;;5030741;28;20053;-69
2021/11/19 10:41:40;;;;;;;8.90;5.60;;;10.10;99.90;;;;;;5031097;28;20124;-68
2021/11/19 10:44:31;;;;;;;11.63;6.60;;;10.20;99.90;;;;;;5012288;28;20038;-68
2021/11/19 10:47:04;;;;;;;12.32;6.10;;;10.60;99.90;;;;;;5029577;28;20046;-69
2021/11/19 10:49:37;;;;;;;17.02;7.55;;;11.00;99.90;;;;;;5031307;28;20215;-68
2021/11/19 10:52:43;;;;;;;11.60;6.82;;;11.50;99.90;;;;;;5030329;28;20621;-68
2021/11/19 10:55:42;;;;;;;12.02;7.03;;;12.50;99.90;;;;;;4941360;29;20502;-68
2021/11/19 10:58:29;;;;;;;12.02;6.75;;;13.30;99.90;;;;;;4952247;29;20050;-68
2021/11/19 11:00:59;;;;;;;15.13;7.18;;;13.40;99.90;;;;;;4952774;29;20055;-68
2021/11/19 11:03:33;;;;;;;13.25;7.13;;;13.00;99.90;;;;;;4952608;29;20116;-69
2021/11/19 11:06:14;;;;;;;11.77;6.38;;;12.90;99.90;;;;;;4952503;29;20212;-68
2021/11/19 11:08:45;;;;;;;11.02;6.43;;;13.30;99.90;;;;;;4936899;29;20553;-68
2021/11/19 11:11:22;;;;;;;11.55;6.88;;;13.60;99.90;;;;;;5018080;28;20177;-69
2021/11/19 11:13:55;;;;;;;11.57;7.40;;;13.10;99.90;;;;;;5030314;28;20136;-69
2021/11/19 11:16:39;;;;;;;10.45;6.22;;;12.30;99.90;;;;;;5030338;28;20141;-69
2021/11/19 11:19:12;;;;;;;11.73;6.00;;;12.00;99.90;;;;;;5014209;28;20052;-67
2021/11/19 11:21:50;;;;;;;12.32;6.78;;;11.70;99.90;;;;;;5013780;28;20064;-68
2021/11/19 11:24:28;;;;;;;12.77;6.50;;;11.30;99.90;;;;;;4980598;28;20050;-69
2021/11/19 11:27:10;;;;;;;11.25;6.70;;;11.40;99.90;;;;;;5014348;28;20049;-69
2021/11/19 11:29:58;;;;;;;;;;;11.50;99.90;;;;;;5030512;28;20065;-69
2021/11/19 11:32:37;;;;;;;11.10;5.30;;;11.50;99.90;;;;;;5083792;28;20290;-68
2021/11/19 11:35:14;;;;;;;12.00;5.40;;;11.20;99.90;;;;;;5106881;28;20490;-69
2021/11/19 11:37:59;;;;;;;10.35;5.78;;;10.80;99.90;;;;;;5089900;28;20502;-68
2021/11/19 11:40:36;;;;;;;13.00;6.53;;;10.40;99.90;;;;;;5094175;28;20116;-67
2021/11/19 11:43:25;;;;;;;14.45;6.95;;;10.10;99.90;;;;;;5111207;28;20042;-69
2021/11/19 11:45:56;;;;;;;14.75;6.97;;;9.90;99.90;;;;;;5084694;28;20035;-69
2021/11/19 11:49:03;;;;;;;14.25;7.88;;;9.70;99.90;;;;;;5094092;28;20061;-69
2021/11/19 11:52:07;;;;;;;17.40;8.40;;;9.70;99.90;;;;;;5084310;28;20375;-68
2021/11/19 11:55:12;;;;;;;19.90;8.43;;;9.70;99.90;;;;;;5108433;28;20076;-68
2021/11/19 11:57:48;;;;;;;16.35;9.35;;;9.60;99.90;;;;;;5106985;28;20082;-68
2021/11/19 12:00:49;;;;;;;18.27;9.63;;;9.70;99.90;;;;;;5111306;28;20045;-69
2021/11/19 12:03:46;;;;;;;26.20;10.02;;;9.60;99.90;;;;;;5094496;28;20121;-68
2021/11/19 12:06:41;;;;;;;19.98;10.38;;;9.50;99.90;;;;;;5088465;28;20038;-68
2021/11/19 12:09:25;;;;;;;20.25;10.05;;;9.30;99.90;;;;;;5110069;28;20122;-69
2021/11/19 12:12:18;;;;;;;22.25;10.63;;;9.20;99.90;;;;;;5098250;28;20039;-69
2021/11/19 12:15:08;;;;;;;22.13;11.63;;;9.30;99.90;;;;;;5082847;28;20036;-68
2021/11/19 12:17:41;;;;;;;20.52;10.30;;;9.30;99.90;;;;;;5098411;28;20049;-69
2021/11/19 12:20:37;;;;;;;18.17;10.48;;;9.10;99.90;;;;;;5095705;28;20040;-68
2021/11/19 12:23:31;;;;;;;21.02;10.48;;;9.10;99.90;;;;;;5086542;28;20126;-67
2021/11/19 12:26:18;;;;;;;19.45;10.77;;;9.20;99.90;;;;;;5109219;28;20052;-68
2021/11/19 12:28:48;;;;;;;21.85;11.32;;;9.10;99.90;;;;;;5099842;28;20058;-68
2021/11/19 12:31:38;;;;;;;24.20;11.48;;;9.00;99.90;;;;;;5089412;28;20557;-67
2021/11/19 12:34:22;;;;;;;21.45;11.70;;;8.90;99.90;;;;;;5102877;28;20044;-69
2021/11/19 12:37:06;;;;;;;23.52;11.85;;;8.80;99.90;;;;;;5089924;28;20119;-68
2021/11/19 12:39:39;;;;;;;19.63;11.27;;;8.80;99.90;;;;;;5111296;28;20085;-68
2021/11/19 12:42:27;;;;;;;21.17;12.50;;;8.70;99.90;;;;;;5062442;28;20036;-68
2021/11/19 12:45:11;;;;;;;23.73;12.35;;;8.80;99.90;;;;;;5056994;28;20177;-68
2021/11/19 12:48:24;;;;;;;22.70;12.55;;;8.70;99.90;;;;;;5078985;28;20035;-69
2021/11/19 12:51:22;;;;;;;28.27;14.52;;;8.70;99.90;;;;;;5074244;28;20044;-68
2021/11/19 12:54:01;;;;;;;24.02;14.00;;;8.70;99.90;;;;;;5060146;28;20044;-68
2021/11/19 12:56:53;;;;;;;28.50;14.77;;;8.60;99.90;;;;;;5083003;28;20450;-68
2021/11/19 12:59:24;;;;;;;26.63;16.00;;;8.60;99.90;;;;;;5103000;28;20051;-68
2021/11/19 13:02:14;;;;;;;25.70;14.23;;;8.60;99.90;;;;;;5079958;28;20046;-68
2021/11/19 13:04:56;;;;;;;27.98;14.45;;;8.70;99.90;;;;;;5106065;28;20089;-69
2021/11/19 13:07:35;;;;;;;;;;;8.80;99.90;;;;;;5110321;28;20043;-69
2021/11/19 13:10:23;;;;;;;26.33;15.00;;;8.90;99.90;;;;;;5081179;28;19919;-69
2021/11/19 13:13:14;;;;;;;27.13;14.82;;;9.00;99.90;;;;;;5108478;28;20039;-69
2021/11/19 13:15:41;;;;;;;28.60;15.38;;;9.00;99.90;;;;;;5071772;28;20051;-69
2021/11/19 13:18:40;;;;;;;25.63;15.13;;;8.90;99.90;;;;;;5082069;28;20078;-68
2021/11/19 13:21:28;;;;;;;32.50;16.13;;;8.80;99.90;;;;;;5105423;28;20039;-67
2021/11/19 13:24:17;;;;;;;29.92;16.90;;;8.70;99.90;;;;;;5101962;28;20048;-67
2021/11/19 13:27:10;;;;;;;25.95;14.15;;;8.70;99.90;;;;;;5061813;28;20056;-68